Time;durP1;ratioP1;P1;durP2;ratioP2;P2;SDS_P1;SDS_P2;PMS_P1;PMS_P2;Temp;Humidity;BMP_temperature;BMP_pressure;BME280_temperature;BME280_humidity;BME280_pressure;Samples;Min_cycle;Max_cycle;Signal;HPM_P1;HPM_P2
2021/12/07 00:01:45;;;;;;;4.13;2.33;;;2.70;99.90;;;;;;5000315;28;20301;-87
2021/12/07 00:04:11;;;;;;;3.60;2.00;;;2.60;99.90;;;;;;4992424;28;20186;-87
2021/12/07 00:06:37;;;;;;;3.90;2.47;;;2.60;99.90;;;;;;4992507;28;20198;-87
2021/12/07 00:09:06;;;;;;;3.20;2.13;;;2.60;99.90;;;;;;4991234;28;20715;-87
2021/12/07 00:11:32;;;;;;;2.77;2.17;;;2.60;99.90;;;;;;4977367;28;20646;-87
2021/12/07 00:13:58;;;;;;;3.07;2.77;;;2.60;99.90;;;;;;4979029;28;20248;-86
2021/12/07 00:16:26;;;;;;;2.43;2.23;;;2.50;99.90;;;;;;4996094;28;20202;-87
2021/12/07 00:18:52;;;;;;;2.50;2.20;;;2.40;99.90;;;;;;4997498;28;20210;-87
2021/12/07 00:21:19;;;;;;;3.47;2.47;;;2.40;99.90;;;;;;5001151;28;20214;-87
2021/12/07 00:23:49;;;;;;;2.50;2.30;;;2.30;99.90;;;;;;4995725;28;20199;-87
2021/12/07 00:26:15;;;;;;;2.80;2.60;;;2.30;99.90;;;;;;5000117;28;20186;-86
2021/12/07 00:28:43;;;;;;;2.60;2.40;;;2.30;99.90;;;;;;5008394;28;20214;-86
2021/12/07 00:31:21;;;;;;;2.63;2.20;;;2.30;99.90;;;;;;5008357;28;20217;-87
2021/12/07 00:33:54;;;;;;;2.97;2.27;;;2.30;99.90;;;;;;5003038;28;20186;-86
2021/12/07 00:36:20;;;;;;;2.50;2.30;;;2.30;99.90;;;;;;4997456;28;20186;-87
2021/12/07 00:38:47;;;;;;;2.77;2.57;;;2.40;99.90;;;;;;4998701;28;20219;-87
2021/12/07 00:41:13;;;;;;;2.20;2.00;;;2.40;99.90;;;;;;5001288;28;20207;-87
2021/12/07 00:43:39;;;;;;;2.17;1.97;;;2.40;99.90;;;;;;5006311;28;20368;-87
2021/12/07 00:46:07;;;;;;;3.53;2.13;;;2.40;99.90;;;;;;5008534;28;20197;-88
2021/12/07 00:48:33;;;;;;;2.40;2.20;;;2.40;99.90;;;;;;4987032;28;20186;-87
2021/12/07 00:50:59;;;;;;;2.50;2.30;;;2.50;99.90;;;;;;5007796;28;20210;-87
2021/12/07 00:53:26;;;;;;;3.07;2.80;;;2.40;99.90;;;;;;5006052;28;20206;-88
2021/12/07 00:55:56;;;;;;;2.57;2.30;;;2.50;99.90;;;;;;5003923;28;20352;-87
2021/12/07 00:58:24;;;;;;;3.10;2.60;;;2.50;99.90;;;;;;5001976;28;20226;-87
2021/12/07 01:01:05;;;;;;;3.73;2.50;;;2.50;99.90;;;;;;5008625;28;20263;-87
2021/12/07 01:03:32;;;;;;;2.90;2.60;;;2.60;99.90;;;;;;5005982;28;20187;-87
2021/12/07 01:06:46;;;;;;;2.70;2.50;;;2.60;99.90;;;;;;4992916;28;20191;-87
2021/12/07 01:25:04;;;;;;;3.40;2.70;;;2.70;99.90;;;;;;4998257;28;20205;-87
2021/12/07 01:27:30;;;;;;;3.13;2.30;;;2.80;99.90;;;;;;5001429;28;20198;-87
2021/12/07 01:30:09;;;;;;;2.70;2.50;;;2.80;99.90;;;;;;4988921;28;20286;-87
2021/12/07 01:46:31;;;;;;;4.53;2.40;;;3.10;99.90;;;;;;5002955;28;20209;-87
2021/12/07 01:51:52;;;;;;;3.03;2.40;;;3.00;99.90;;;;;;5004785;28;20225;-86
2021/12/07 01:59:52;;;;;;;2.97;2.53;;;3.00;99.90;;;;;;5002556;28;20298;-87
2021/12/07 02:02:24;;;;;;;2.30;2.10;;;3.10;99.90;;;;;;4998493;28;20226;-87
2021/12/07 02:04:50;;;;;;;3.13;2.17;;;3.20;99.90;;;;;;5008477;28;20199;-86
2021/12/07 02:07:16;;;;;;;2.40;2.20;;;3.30;99.90;;;;;;5007857;28;20194;-86
2021/12/07 02:09:46;;;;;;;2.60;2.40;;;3.20;99.90;;;;;;4994651;28;20199;-87
2021/12/07 02:12:13;;;;;;;3.03;2.40;;;3.20;99.90;;;;;;4997372;28;20223;-86
2021/12/07 02:14:40;;;;;;;2.77;2.57;;;3.10;99.90;;;;;;5000430;28;20193;-86
2021/12/07 02:17:12;;;;;;;3.03;2.73;;;3.10;99.90;;;;;;4999705;28;20198;-87
2021/12/07 02:19:39;;;;;;;2.93;2.70;;;3.10;99.90;;;;;;4999388;28;20226;-86
2021/12/07 02:22:05;;;;;;;3.23;2.93;;;3.10;99.90;;;;;;4999792;28;20218;-87
2021/12/07 02:24:32;;;;;;;3.03;2.50;;;3.10;99.90;;;;;;5001155;28;20262;-87
2021/12/07 02:26:59;;;;;;;3.13;2.83;;;3.10;99.90;;;;;;5004099;28;20194;-86
2021/12/07 02:29:25;;;;;;;2.77;2.50;;;3.10;99.90;;;;;;5001416;28;20219;-87
2021/12/07 02:31:53;;;;;;;4.43;2.73;;;3.10;99.90;;;;;;5001629;28;20210;-87
2021/12/07 02:34:21;;;;;;;3.03;2.33;;;3.10;99.90;;;;;;5004233;28;20194;-86
2021/12/07 02:36:47;;;;;;;3.33;2.70;;;3.10;99.90;;;;;;5013573;28;20559;-87
2021/12/07 02:39:13;;;;;;;2.70;2.50;;;3.00;99.90;;;;;;5002150;28;20221;-87
2021/12/07 02:41:40;;;;;;;3.13;2.43;;;3.10;99.90;;;;;;5003031;28;20258;-86
2021/12/07 02:44:07;;;;;;;5.10;2.23;;;3.10;99.90;;;;;;5005306;28;20210;-87
2021/12/07 02:46:35;;;;;;;2.83;2.50;;;3.10;99.90;;;;;;5002664;28;20193;-87
2021/12/07 02:49:01;;;;;;;3.20;2.87;;;3.10;99.90;;;;;;5003709;28;20197;-87
2021/12/07 02:51:27;;;;;;;3.87;2.50;;;3.10;99.90;;;;;;4999886;28;20225;-87
2021/12/07 02:53:55;;;;;;;3.03;2.53;;;3.10;99.90;;;;;;5004377;28;20375;-87
2021/12/07 02:56:21;;;;;;;2.80;2.53;;;3.00;99.90;;;;;;4977729;28;20214;-86
2021/12/07 02:58:46;;;;;;;3.43;2.47;;;3.20;99.90;;;;;;5003268;28;20763;-87
2021/12/07 03:01:23;;;;;;;2.27;2.07;;;3.20;99.90;;;;;;5000297;28;20219;-86
2021/12/07 03:04:00;;;;;;;2.80;2.30;;;3.20;99.90;;;;;;4998739;28;20194;-87
2021/12/07 03:06:43;;;;;;;2.73;2.33;;;3.20;99.90;;;;;;4992336;28;20203;-87
2021/12/07 03:28:11;;;;;;;4.63;2.20;;;3.30;99.90;;;;;;5001857;28;20205;-86
2021/12/07 03:30:38;;;;;;;2.60;2.33;;;3.40;99.90;;;;;;5004198;28;20895;-85
2021/12/07 03:33:04;;;;;;;3.20;2.33;;;3.40;99.90;;;;;;4998863;28;20201;-86
2021/12/07 03:35:30;;;;;;;3.50;2.23;;;3.40;99.90;;;;;;4999351;28;20186;-87
2021/12/07 03:37:57;;;;;;;2.40;2.20;;;3.50;99.90;;;;;;5002810;28;20198;-86
2021/12/07 03:40:23;;;;;;;3.07;2.37;;;3.50;99.90;;;;;;5008066;28;20212;-87
2021/12/07 03:42:49;;;;;;;2.63;2.43;;;3.50;99.90;;;;;;4995813;28;20198;-87
2021/12/07 03:45:15;;;;;;;3.57;2.00;;;3.60;99.90;;;;;;5002814;28;20221;-87
2021/12/07 03:47:41;;;;;;;3.40;2.47;;;3.60;99.90;;;;;;5005726;28;20186;-86
2021/12/07 03:50:09;;;;;;;3.23;2.17;;;3.60;99.90;;;;;;4999793;28;20202;-86
2021/12/07 03:52:35;;;;;;;3.50;2.43;;;3.60;99.90;;;;;;5001257;28;20214;-87
2021/12/07 03:55:02;;;;;;;3.20;2.53;;;3.40;99.90;;;;;;4999908;28;20205;-87
2021/12/07 03:57:27;;;;;;;3.30;2.07;;;3.30;99.90;;;;;;5000131;28;20300;-87
2021/12/07 03:59:54;;;;;;;2.50;2.30;;;3.40;99.90;;;;;;5000969;28;20281;-87
2021/12/07 04:02:20;;;;;;;3.40;2.53;;;3.30;99.90;;;;;;5006423;28;20194;-87
2021/12/07 04:04:45;;;;;;;3.73;2.70;;;3.20;99.90;;;;;;5008470;28;20186;-86
2021/12/07 04:07:11;;;;;;;3.57;2.70;;;3.10;99.90;;;;;;4994480;28;20192;-87
2021/12/07 04:09:37;;;;;;;5.57;2.40;;;3.10;99.90;;;;;;5005004;28;20202;-87
2021/12/07 04:12:04;;;;;;;4.53;2.37;;;3.20;99.90;;;;;;5004679;28;20293;-87
2021/12/07 04:14:29;;;;;;;3.80;2.60;;;3.20;99.90;;;;;;4986914;28;20199;-87
2021/12/07 04:16:59;;;;;;;3.17;2.67;;;3.20;99.90;;;;;;5008785;28;20285;-87
2021/12/07 04:19:25;;;;;;;2.47;2.27;;;3.20;99.90;;;;;;5004492;28;20453;-87
2021/12/07 04:21:50;;;;;;;3.13;2.80;;;3.20;99.90;;;;;;5005869;28;20222;-87
2021/12/07 04:24:16;;;;;;;3.00;2.70;;;3.20;99.90;;;;;;5003556;28;20191;-87
2021/12/07 04:26:43;;;;;;;2.93;2.63;;;3.20;99.90;;;;;;5000364;28;20203;-87
2021/12/07 04:29:09;;;;;;;3.07;2.33;;;3.20;99.90;;;;;;5005746;28;20214;-87
2021/12/07 04:31:35;;;;;;;2.37;2.17;;;3.20;99.90;;;;;;5004147;28;20207;-87
2021/12/07 04:34:01;;;;;;;3.97;2.60;;;3.20;99.90;;;;;;4995190;28;20195;-87
2021/12/07 04:36:27;;;;;;;3.97;2.50;;;3.10;99.90;;;;;;5003334;28;20182;-88
2021/12/07 04:38:53;;;;;;;3.23;2.47;;;3.10;99.90;;;;;;5001278;28;20226;-87
2021/12/07 04:41:19;;;;;;;3.30;2.47;;;3.10;99.90;;;;;;5003689;28;20222;-88
2021/12/07 04:43:48;;;;;;;2.30;2.00;;;3.20;99.90;;;;;;5003858;28;20217;-87
2021/12/07 04:59:29;;;;;;;2.73;2.07;;;3.20;99.90;;;;;;5005690;28;20212;-88
2021/12/07 05:01:55;;;;;;;4.80;2.63;;;3.30;99.90;;;;;;5008412;28;20248;-88
2021/12/07 05:04:26;;;;;;;4.73;2.50;;;3.30;99.90;;;;;;5009503;28;20186;-88
2021/12/07 05:06:57;;;;;;;3.77;2.50;;;3.40;99.90;;;;;;5003761;28;20313;-88
2021/12/07 05:14:28;;;;;;;3.63;2.47;;;3.40;99.90;;;;;;4996627;28;20194;-89
2021/12/07 05:39:02;;;;;;;2.77;2.33;;;3.60;99.90;;;;;;5076032;28;20230;-86
2021/12/07 05:41:28;;;;;;;4.40;2.70;;;3.60;99.90;;;;;;5056646;28;20211;-87
2021/12/07 05:43:54;;;;;;;5.33;3.40;;;3.50;99.90;;;;;;5028857;28;20550;-88
2021/12/07 05:46:21;;;;;;;5.20;3.30;;;3.50;99.90;;;;;;5000953;28;20198;-88
2021/12/07 05:48:47;;;;;;;3.37;2.90;;;3.60;99.90;;;;;;5005474;28;20315;-87
2021/12/07 05:51:13;;;;;;;4.83;2.43;;;3.50;99.90;;;;;;5023497;28;20230;-88
2021/12/07 05:53:39;;;;;;;5.90;2.50;;;3.50;99.90;;;;;;4979703;28;20203;-88
2021/12/07 05:56:05;;;;;;;5.43;2.37;;;3.50;99.90;;;;;;4995709;28;20189;-88
2021/12/07 05:58:31;;;;;;;3.77;2.87;;;3.60;99.90;;;;;;5001459;28;20675;-88
2021/12/07 06:00:58;;;;;;;3.33;2.40;;;3.50;99.90;;;;;;4999426;28;20268;-88
2021/12/07 06:03:27;;;;;;;6.10;2.30;;;3.60;99.90;;;;;;5002059;28;20187;-88
2021/12/07 06:05:55;;;;;;;4.67;2.40;;;3.60;99.90;;;;;;4990446;28;20202;-89
2021/12/07 06:14:57;;;;;;;3.13;2.53;;;3.60;99.90;;;;;;5002671;28;20225;-87
2021/12/07 06:17:23;;;;;;;4.33;2.20;;;3.50;99.90;;;;;;4995180;28;20447;-86
2021/12/07 06:19:49;;;;;;;3.83;2.37;;;3.60;99.90;;;;;;5008248;28;20214;-87
2021/12/07 06:22:15;;;;;;;3.07;2.23;;;3.60;99.90;;;;;;4985357;28;20217;-87
2021/12/07 06:24:41;;;;;;;4.23;2.77;;;3.70;99.90;;;;;;4978281;28;20191;-89
2021/12/07 06:27:08;;;;;;;4.43;2.93;;;3.70;99.90;;;;;;4978115;28;20820;-88
2021/12/07 06:29:34;;;;;;;4.43;2.73;;;3.60;99.90;;;;;;4966753;28;20792;-88
2021/12/07 06:31:59;;;;;;;5.57;2.67;;;3.60;99.90;;;;;;4978900;28;20226;-88
2021/12/07 06:34:26;;;;;;;7.33;2.87;;;3.70;99.90;;;;;;4975063;28;20195;-88
2021/12/07 06:36:52;;;;;;;3.93;2.50;;;3.70;99.90;;;;;;4979763;28;20187;-89
2021/12/07 06:39:20;;;;;;;6.80;2.80;;;3.80;99.90;;;;;;4981482;28;20228;-88
2021/12/07 06:41:46;;;;;;;8.43;3.20;;;3.70;99.90;;;;;;4979466;28;20225;-88
2021/12/07 06:44:12;;;;;;;3.97;2.67;;;3.70;99.90;;;;;;4985299;28;20187;-88
2021/12/07 06:46:41;;;;;;;7.50;2.77;;;3.70;99.90;;;;;;4983340;28;20674;-89
2021/12/07 06:49:07;;;;;;;6.53;2.90;;;3.60;99.90;;;;;;4982683;28;20190;-87
2021/12/07 06:51:33;;;;;;;5.33;2.93;;;3.60;99.90;;;;;;4978413;28;20275;-87
2021/12/07 06:54:41;;;;;;;;;;;;;;;;;;;;;
2021/12/07 07:05:26;;;;;;;;;;;;;;;;;;;;;
2021/12/07 08:23:14;;;;;;;4.20;2.20;;;4.00;99.90;;;;;;5043540;28;20232;-92
2021/12/07 08:25:52;;;;;;;7.77;2.90;;;4.10;99.90;;;;;;5027435;28;20203;-92
2021/12/07 09:11:57;;;;;;;5.57;2.50;;;4.70;99.90;;;;;;4920524;26;20241;-90
2021/12/07 09:15:12;;;;;;;9.57;2.83;;;4.70;99.80;;;;;;5099314;28;20690;-91
2021/12/07 09:17:40;;;;;;;7.23;2.40;;;4.70;99.80;;;;;;5107959;28;20267;-90
2021/12/07 09:20:16;;;;;;;3.67;2.60;;;4.70;98.50;;;;;;5107348;28;20230;-90
2021/12/07 09:22:48;;;;;;;6.80;2.60;;;4.60;99.70;;;;;;5102375;28;20206;-90
2021/12/07 09:25:18;;;;;;;4.60;2.40;;;4.50;99.60;;;;;;5111313;28;20186;-89
2021/12/07 09:27:59;;;;;;;7.13;2.70;;;4.40;99.90;;;;;;5065614;28;20194;-90
2021/12/07 09:30:34;;;;;;;6.67;2.40;;;4.60;99.90;;;;;;5097631;28;20194;-91
2021/12/07 09:33:00;;;;;;;5.70;2.50;;;4.40;99.90;;;;;;5097357;28;20191;-90
2021/12/07 09:35:27;;;;;;;6.53;3.17;;;4.50;99.90;;;;;;5098579;28;20198;-90
2021/12/07 09:37:59;;;;;;;6.47;3.23;;;4.50;99.90;;;;;;5097121;28;20215;-90
2021/12/07 09:40:34;;;;;;;5.30;2.77;;;4.50;99.90;;;;;;5056370;28;20208;-91
2021/12/07 09:43:00;;;;;;;9.33;3.27;;;4.50;99.90;;;;;;5094229;28;20250;-90
2021/12/07 09:45:40;;;;;;;5.63;3.00;;;4.70;99.50;;;;;;5066526;28;20252;-91
2021/12/07 09:48:15;;;;;;;4.07;2.90;;;4.90;99.20;;;;;;5083072;28;20288;-90
2021/12/07 09:50:49;;;;;;;5.83;2.70;;;5.00;98.30;;;;;;5062260;28;20191;-91
2021/12/07 09:53:24;;;;;;;6.57;2.60;;;5.10;98.40;;;;;;5077371;28;20214;-90
2021/12/07 09:56:09;;;;;;;;;;;;;;;;;;;;;
2021/12/07 09:58:39;;;;;;;6.30;2.60;;;5.10;96.90;;;;;;5092914;28;20283;-90
2021/12/07 10:01:15;;;;;;;5.90;3.40;;;5.20;96.70;;;;;;5074828;28;20290;-91
2021/12/07 10:03:53;;;;;;;4.00;2.90;;;5.40;95.00;;;;;;5074331;28;20197;-90
2021/12/07 10:06:51;;;;;;;3.83;2.63;;;5.50;95.50;;;;;;5079267;28;20239;-91
2021/12/07 10:09:20;;;;;;;6.57;2.80;;;5.60;93.20;;;;;;5077905;28;20201;-90
2021/12/07 10:11:56;;;;;;;3.73;2.37;;;5.80;90.80;;;;;;5099561;28;20211;-91
2021/12/07 10:15:13;;;;;;;5.40;2.50;;;5.80;91.50;;;;;;5077672;28;20284;-89
2021/12/07 10:18:02;;;;;;;5.60;2.23;;;5.90;90.10;;;;;;5071607;28;20244;-90
2021/12/07 10:20:53;;;;;;;5.90;2.70;;;6.00;89.70;;;;;;5077849;28;20314;-90
2021/12/07 10:24:39;;;;;;;7.57;2.83;;;6.00;90.30;;;;;;5096271;28;20195;-91
2021/12/07 10:27:11;;;;;;;4.57;2.47;;;5.80;90.50;;;;;;4992535;28;20281;-91
2021/12/07 10:29:40;;;;;;;4.73;2.43;;;6.10;89.70;;;;;;5091423;28;20282;-90
2021/12/07 10:32:47;;;;;;;4.03;2.20;;;6.20;88.20;;;;;;5105613;28;20286;-91
2021/12/07 10:38:56;;;;;;;2.23;2.00;;;6.40;87.80;;;;;;5094376;28;20670;-91
2021/12/07 10:41:57;;;;;;;6.47;2.43;;;6.40;85.70;;;;;;5096106;28;20202;-90
2021/12/07 10:44:43;;;;;;;4.93;2.63;;;6.40;86.30;;;;;;5087898;28;20202;-90
2021/12/07 10:47:38;;;;;;;6.50;1.90;;;6.60;85.60;;;;;;5059512;28;20199;-89
2021/12/07 10:50:43;;;;;;;4.93;2.07;;;6.70;85.20;;;;;;5062898;28;20194;-90
2021/12/07 10:53:28;;;;;;;3.47;2.30;;;6.90;85.00;;;;;;5097915;28;20201;-90
2021/12/07 10:56:06;;;;;;;5.47;2.23;;;6.70;83.90;;;;;;5070109;28;20197;-90
2021/12/07 10:59:23;;;;;;;6.57;2.70;;;6.60;83.30;;;;;;5092421;28;20221;-91
2021/12/07 11:02:16;;;;;;;6.27;2.67;;;7.00;83.20;;;;;;5077493;28;20246;-89
2021/12/07 11:05:50;;;;;;;;;;;;;;;;;;;;;
2021/12/07 11:08:23;;;;;;;5.43;2.30;;;7.40;83.00;;;;;;5093079;28;20281;-89
2021/12/07 11:10:54;;;;;;;3.27;1.97;;;7.30;80.50;;;;;;5061732;28;20215;-89
2021/12/07 11:13:33;;;;;;;4.57;2.00;;;7.00;80.10;;;;;;5096226;28;20174;-87
2021/12/07 11:19:01;;;;;;;4.33;2.00;;;6.70;82.60;;;;;;5091541;28;20233;-89
2021/12/07 11:21:33;;;;;;;3.70;2.10;;;6.50;81.80;;;;;;5095540;28;20211;-91
2021/12/07 11:24:17;;;;;;;4.87;2.37;;;6.30;82.70;;;;;;5092601;28;20197;-91
2021/12/07 11:30:35;;;;;;;4.20;2.00;;;6.40;82.80;;;;;;5098608;28;20193;-92
2021/12/07 11:33:02;;;;;;;4.70;2.13;;;6.70;82.30;;;;;;5024505;28;20197;-89
2021/12/07 11:35:41;;;;;;;4.63;2.00;;;7.30;80.30;;;;;;5007758;28;20197;-90
2021/12/07 11:42:15;;;;;;;3.53;1.67;;;6.80;82.20;;;;;;5038589;28;20304;-91
2021/12/07 11:49:21;;;;;;;;;;;;;;;;;;;;;
2021/12/07 11:58:35;;;;;;;4.73;2.77;;;8.10;77.60;;;;;;5040238;28;20235;-90
2021/12/07 12:01:23;;;;;;;5.87;2.83;;;8.10;74.70;;;;;;5036899;28;20867;-89
2021/12/07 12:04:27;;;;;;;3.47;2.23;;;8.40;71.60;;;;;;5069309;28;20196;-90
2021/12/07 12:07:21;;;;;;;;;;;;;;;;;;;;;
2021/12/07 12:10:14;;;;;;;5.50;2.40;;;8.30;73.50;;;;;;5096812;28;20234;-90
2021/12/07 12:13:05;;;;;;;4.53;2.00;;;8.40;68.70;;;;;;5067179;28;20223;-90
2021/12/07 12:15:45;;;;;;;5.40;2.20;;;8.60;68.50;;;;;;5095882;28;20247;-89
2021/12/07 12:18:34;;;;;;;6.97;2.40;;;8.60;67.10;;;;;;5074636;28;20183;-90
2021/12/07 12:21:24;;;;;;;7.30;2.73;;;8.40;68.70;;;;;;5072093;28;20213;-89
2021/12/07 12:24:18;;;;;;;5.33;4.43;;;8.70;65.80;;;;;;5090844;28;20198;-89
2021/12/07 12:26:45;;;;;;;7.37;2.30;;;8.80;67.00;;;;;;5093440;28;20242;-90
2021/12/07 12:29:23;;;;;;;5.87;3.33;;;8.50;66.40;;;;;;5087145;28;20201;-90
2021/12/07 12:31:57;;;;;;;6.77;2.60;;;8.60;67.50;;;;;;5089099;28;20214;-90
2021/12/07 12:34:26;;;;;;;3.93;2.17;;;8.40;67.50;;;;;;5086569;28;20186;-90
2021/12/07 12:37:15;;;;;;;4.27;2.40;;;8.50;69.30;;;;;;5082973;28;20226;-90
2021/12/07 12:39:50;;;;;;;3.73;2.20;;;8.40;69.60;;;;;;5088465;28;20211;-90
2021/12/07 12:42:43;;;;;;;8.10;2.90;;;8.30;67.90;;;;;;5079091;28;20228;-90
2021/12/07 12:45:18;;;;;;;4.07;2.40;;;7.90;70.80;;;;;;5078800;28;20171;-90
2021/12/07 12:47:44;;;;;;;4.40;2.40;;;7.90;70.50;;;;;;5097055;28;20211;-90
2021/12/07 12:50:20;;;;;;;6.10;2.07;;;7.90;70.60;;;;;;5096472;28;20337;-90
2021/12/07 12:52:49;;;;;;;4.57;2.13;;;7.80;68.50;;;;;;5062172;28;20206;-89
2021/12/07 12:55:36;;;;;;;4.00;1.93;;;7.50;69.60;;;;;;5067223;28;20187;-90
2021/12/07 12:58:06;;;;;;;6.10;2.43;;;7.20;71.90;;;;;;5099116;28;21226;-90
2021/12/07 13:01:05;;;;;;;3.97;2.33;;;7.10;70.40;;;;;;5081044;28;20237;-89
2021/12/07 13:03:44;;;;;;;5.30;2.37;;;6.90;71.40;;;;;;5096332;28;20254;-90
2021/12/07 13:06:14;;;;;;;5.07;2.60;;;6.90;72.40;;;;;;5082842;28;20516;-90
2021/12/07 13:09:02;;;;;;;3.27;2.13;;;6.90;73.80;;;;;;5062249;28;20234;-90
2021/12/07 13:11:36;;;;;;;2.97;2.30;;;6.80;72.80;;;;;;5077024;28;20215;-89
2021/12/07 13:14:10;;;;;;;2.67;2.30;;;6.80;73.00;;;;;;5093956;28;20195;-89
2021/12/07 13:16:39;;;;;;;3.43;2.40;;;6.90;72.50;;;;;;5096095;28;20587;-90
2021/12/07 13:19:07;;;;;;;2.73;2.17;;;7.20;70.70;;;;;;5080595;28;20293;-90
2021/12/07 13:21:41;;;;;;;4.17;2.30;;;7.30;69.60;;;;;;5093504;28;20218;-89
2021/12/07 13:24:15;;;;;;;4.30;2.17;;;7.20;67.90;;;;;;5090715;28;20183;-90
2021/12/07 13:26:45;;;;;;;6.70;3.23;;;7.10;68.90;;;;;;5098022;28;20655;-89
2021/12/07 13:29:17;;;;;;;4.73;2.47;;;7.10;69.50;;;;;;5089457;28;20199;-89
2021/12/07 13:31:46;;;;;;;4.73;2.40;;;7.20;70.50;;;;;;5098112;28;20207;-89
2021/12/07 13:34:23;;;;;;;3.93;2.30;;;7.10;68.50;;;;;;5089140;28;20221;-88
2021/12/07 13:36:58;;;;;;;4.87;2.03;;;7.30;67.10;;;;;;5093072;28;20194;-89
2021/12/07 13:39:24;;;;;;;4.10;2.30;;;7.20;68.10;;;;;;5095690;28;20302;-89
2021/12/07 13:42:04;;;;;;;2.73;1.83;;;7.10;67.30;;;;;;5094475;28;20213;-88
2021/12/07 13:44:36;;;;;;;4.47;2.30;;;7.10;67.90;;;;;;5089801;28;20313;-89
2021/12/07 13:47:11;;;;;;;4.77;2.10;;;7.10;68.60;;;;;;5073151;28;20198;-89
2021/12/07 13:49:37;;;;;;;5.37;2.40;;;7.10;68.20;;;;;;5089210;28;20275;-89
2021/12/07 13:52:22;;;;;;;3.80;2.13;;;7.00;69.10;;;;;;5088426;28;20207;-88
2021/12/07 13:54:52;;;;;;;4.13;2.23;;;7.10;68.80;;;;;;5091699;28;20619;-88
2021/12/07 13:57:27;;;;;;;4.87;2.67;;;7.00;69.20;;;;;;5092863;28;20201;-90
2021/12/07 14:00:17;;;;;;;6.00;2.47;;;6.90;68.30;;;;;;5073841;28;20603;-89
2021/12/07 14:02:49;;;;;;;8.30;4.07;;;6.80;69.10;;;;;;5075223;28;20210;-89
2021/12/07 14:05:26;;;;;;;5.30;3.07;;;6.80;70.10;;;;;;5073022;28;20187;-89
2021/12/07 14:07:53;;;;;;;5.70;2.43;;;6.80;70.00;;;;;;5061599;28;20194;-89
2021/12/07 14:10:23;;;;;;;5.60;2.57;;;6.90;69.60;;;;;;5076678;28;20230;-89
2021/12/07 14:12:53;;;;;;;7.33;3.90;;;6.90;68.20;;;;;;5074105;28;20219;-90
2021/12/07 14:15:40;;;;;;;4.50;2.87;;;6.90;69.40;;;;;;5061214;28;20627;-90
2021/12/07 14:18:12;;;;;;;4.30;2.40;;;6.90;68.20;;;;;;5092442;28;20219;-89
2021/12/07 14:20:42;;;;;;;5.63;2.70;;;6.90;68.10;;;;;;5090230;28;20298;-90
2021/12/07 14:23:21;;;;;;;6.00;2.73;;;7.10;67.70;;;;;;5093917;28;20205;-90
2021/12/07 14:25:52;;;;;;;4.90;2.67;;;7.00;67.90;;;;;;5084180;28;20206;-89
2021/12/07 14:28:42;;;;;;;4.80;2.57;;;7.00;66.40;;;;;;5090949;28;20336;-89
2021/12/07 14:31:13;;;;;;;8.00;3.00;;;7.00;66.10;;;;;;5087271;28;20274;-89
2021/12/07 14:33:48;;;;;;;4.83;2.40;;;6.90;67.30;;;;;;5090704;28;20186;-89
2021/12/07 14:36:23;;;;;;;6.83;2.47;;;6.90;67.20;;;;;;5089395;28;20190;-89
2021/12/07 14:38:52;;;;;;;6.17;2.43;;;7.00;67.00;;;;;;5088747;28;20295;-89
2021/12/07 14:41:20;;;;;;;5.00;2.50;;;7.00;67.30;;;;;;5081286;28;20195;-89
2021/12/07 14:43:47;;;;;;;6.40;2.30;;;7.00;66.80;;;;;;5100109;28;20207;-89
2021/12/07 14:46:14;;;;;;;6.67;2.60;;;6.90;65.20;;;;;;5074712;28;20191;-89
2021/12/07 14:48:42;;;;;;;9.07;3.47;;;6.90;66.50;;;;;;5078606;28;20584;-89
2021/12/07 14:51:15;;;;;;;5.83;2.43;;;6.90;67.10;;;;;;5092456;28;20214;-90
2021/12/07 14:53:44;;;;;;;5.60;2.63;;;6.80;67.20;;;;;;5094201;28;20187;-89
2021/12/07 14:56:12;;;;;;;7.53;2.70;;;6.80;67.40;;;;;;5100783;28;20292;-89
2021/12/07 14:58:38;;;;;;;5.60;2.70;;;6.80;68.90;;;;;;5065588;28;20237;-89
2021/12/07 15:01:08;;;;;;;5.47;2.37;;;6.70;68.40;;;;;;5093099;28;20256;-89
2021/12/07 15:03:39;;;;;;;4.13;2.70;;;6.60;68.40;;;;;;5096386;28;20186;-89
2021/12/07 15:06:07;;;;;;;5.37;2.90;;;6.60;68.80;;;;;;5088797;28;20191;-89
2021/12/07 15:08:34;;;;;;;6.37;3.20;;;6.50;70.10;;;;;;5094107;28;20201;-89
2021/12/07 15:11:00;;;;;;;6.97;3.40;;;6.60;71.40;;;;;;5073146;28;20280;-89
2021/12/07 15:13:27;;;;;;;3.70;2.63;;;6.60;70.60;;;;;;5059271;28;20247;-89
2021/12/07 15:15:58;;;;;;;8.23;3.33;;;6.60;68.90;;;;;;5089551;28;20190;-89
2021/12/07 15:18:28;;;;;;;6.77;3.40;;;6.60;69.70;;;;;;5074417;28;20198;-90
2021/12/07 15:20:54;;;;;;;7.50;3.23;;;6.60;71.10;;;;;;5091249;28;20218;-90
2021/12/07 15:23:20;;;;;;;4.80;3.00;;;6.60;72.00;;;;;;5069928;28;20205;-90
2021/12/07 15:25:54;;;;;;;3.80;2.63;;;6.60;73.70;;;;;;5094317;28;20186;-90
2021/12/07 15:28:21;;;;;;;4.77;2.40;;;6.60;74.40;;;;;;5076206;28;20203;-90
2021/12/07 15:30:52;;;;;;;4.47;2.50;;;6.60;74.20;;;;;;5094335;28;20214;-90
2021/12/07 15:33:18;;;;;;;3.40;2.40;;;6.50;74.00;;;;;;5069298;28;20270;-89
2021/12/07 15:35:45;;;;;;;6.10;2.70;;;6.50;75.40;;;;;;5074560;28;20179;-89
2021/12/07 15:38:19;;;;;;;4.30;3.70;;;6.40;75.80;;;;;;5090086;28;20191;-89
2021/12/07 15:40:46;;;;;;;9.23;6.70;;;6.40;76.30;;;;;;5069050;28;20215;-90
2021/12/07 15:43:14;;;;;;;9.77;7.50;;;6.40;75.20;;;;;;5071026;28;20741;-91
2021/12/07 15:45:42;;;;;;;10.37;7.10;;;6.40;72.60;;;;;;5091812;28;20215;-90
2021/12/07 15:48:08;;;;;;;11.10;6.93;;;6.50;72.90;;;;;;5091274;28;20214;-89
2021/12/07 15:50:37;;;;;;;7.93;6.40;;;6.40;74.20;;;;;;5074537;28;20664;-89
2021/12/07 15:53:11;;;;;;;6.97;5.63;;;6.30;74.50;;;;;;5090270;28;20206;-88
2021/12/07 15:55:42;;;;;;;7.73;5.13;;;6.30;74.10;;;;;;5073102;28;20765;-89
2021/12/07 15:58:14;;;;;;;7.87;4.17;;;6.30;73.90;;;;;;5074103;28;20194;-89
2021/12/07 16:00:51;;;;;;;6.73;5.27;;;6.20;75.40;;;;;;5092791;28;20230;-89
2021/12/07 16:03:21;;;;;;;12.57;9.20;;;6.10;75.80;;;;;;5088337;28;20500;-88
2021/12/07 16:06:02;;;;;;;12.90;10.17;;;6.10;76.10;;;;;;5090346;28;20188;-89
2021/12/07 16:08:35;;;;;;;12.30;9.10;;;6.20;74.40;;;;;;5068758;28;20182;-89
2021/12/07 16:11:09;;;;;;;9.70;7.90;;;6.20;74.80;;;;;;5089652;28;20279;-89
2021/12/07 16:13:37;;;;;;;10.27;8.33;;;6.10;76.10;;;;;;5074737;28;20214;-86
2021/12/07 16:16:06;;;;;;;13.40;9.37;;;6.00;76.40;;;;;;5093902;28;20186;-89
2021/12/07 16:18:35;;;;;;;9.50;7.60;;;6.00;75.90;;;;;;5088340;28;20191;-88
2021/12/07 16:21:03;;;;;;;10.23;6.10;;;6.00;76.00;;;;;;5079173;28;20201;-88
2021/12/07 16:23:31;;;;;;;9.57;6.33;;;6.00;72.90;;;;;;5076354;28;20225;-88
2021/12/07 16:25:57;;;;;;;6.50;4.87;;;6.00;74.50;;;;;;5089493;28;20225;-88
2021/12/07 16:28:23;;;;;;;9.07;5.40;;;5.80;74.60;;;;;;5091076;28;20262;-88
2021/12/07 16:30:48;;;;;;;11.93;7.70;;;5.90;75.60;;;;;;5083422;28;20230;-88
2021/12/07 16:33:14;;;;;;;15.63;11.00;;;5.80;75.60;;;;;;5093474;28;20249;-88
2021/12/07 16:35:41;;;;;;;16.70;10.03;;;5.80;74.30;;;;;;5099487;28;20217;-88
2021/12/07 16:38:08;;;;;;;10.37;6.07;;;5.70;73.70;;;;;;5098863;28;20221;-88
2021/12/07 16:40:34;;;;;;;8.97;5.60;;;5.70;73.60;;;;;;5095471;28;20270;-88
2021/12/07 16:43:00;;;;;;;7.67;4.87;;;5.60;73.30;;;;;;5095839;28;20192;-88
2021/12/07 16:45:36;;;;;;;6.83;4.60;;;5.60;72.70;;;;;;5097818;28;20281;-88
2021/12/07 16:48:03;;;;;;;6.30;4.30;;;5.60;74.00;;;;;;5108532;28;20194;-88
2021/12/07 16:50:29;;;;;;;8.43;4.00;;;5.60;75.80;;;;;;5108095;28;20183;-89
2021/12/07 16:52:55;;;;;;;6.93;4.70;;;5.60;73.10;;;;;;5096298;28;20750;-88
2021/12/07 16:55:22;;;;;;;7.03;3.90;;;5.50;75.00;;;;;;5099968;28;20191;-87
2021/12/07 16:57:48;;;;;;;5.30;3.80;;;5.50;74.60;;;;;;5075641;28;20184;-89
2021/12/07 17:00:18;;;;;;;7.17;4.40;;;5.50;74.50;;;;;;5081307;28;20226;-88
2021/12/07 17:02:45;;;;;;;5.47;3.93;;;5.40;75.70;;;;;;5088323;28;20211;-88
2021/12/07 17:05:13;;;;;;;5.50;4.13;;;5.50;75.80;;;;;;5093774;28;20262;-88
2021/12/07 17:07:40;;;;;;;7.53;4.73;;;5.40;77.10;;;;;;5078639;28;20675;-87
2021/12/07 17:10:09;;;;;;;7.27;4.07;;;5.40;75.80;;;;;;5101859;28;20218;-88
2021/12/07 17:12:35;;;;;;;5.13;3.80;;;5.40;74.80;;;;;;5097300;28;20227;-88
2021/12/07 17:15:00;;;;;;;5.23;3.50;;;5.30;75.50;;;;;;5096051;28;20207;-88
2021/12/07 17:17:26;;;;;;;5.30;3.30;;;5.30;75.10;;;;;;5096138;28;20252;-87
2021/12/07 17:19:52;;;;;;;5.67;4.10;;;5.30;75.50;;;;;;5081709;28;20219;-87
2021/12/07 17:22:18;;;;;;;7.30;3.60;;;5.30;76.20;;;;;;5096241;28;20276;-88
2021/12/07 17:24:43;;;;;;;4.37;3.10;;;5.30;76.00;;;;;;5066114;28;20690;-88
2021/12/07 17:27:09;;;;;;;5.50;3.13;;;5.30;75.20;;;;;;5074839;28;20191;-88
2021/12/07 17:29:37;;;;;;;6.23;3.50;;;5.30;75.90;;;;;;5101669;28;20548;-88
2021/12/07 17:32:04;;;;;;;5.93;3.23;;;5.10;75.20;;;;;;5091390;28;20207;-88
2021/12/07 17:34:30;;;;;;;5.00;3.73;;;5.00;76.40;;;;;;5095890;28;20191;-89
2021/12/07 17:36:56;;;;;;;4.27;3.40;;;5.00;77.30;;;;;;5075248;28;20187;-88
2021/12/07 17:39:22;;;;;;;3.67;3.33;;;5.00;76.30;;;;;;5074727;28;20218;-89
2021/12/07 17:41:49;;;;;;;5.00;3.43;;;5.00;77.80;;;;;;5081136;28;20211;-89
2021/12/07 17:44:15;;;;;;;5.33;3.13;;;5.00;77.10;;;;;;5080199;28;20218;-89
2021/12/07 17:46:41;;;;;;;5.67;3.90;;;5.00;77.20;;;;;;5106851;28;20183;-89